Terminal Aerodrome Forecast
Issued by NWS La Crosse, WI

Home | Current Version | Previous Version | Text Only | Print | Product List | Glossary On
Versions: 1 2 3 4 5 6 7 8 9 10 11 12 13 14 15 16 17 18 19 20 21 22 23 24 25 26 27 28 29 30 31 32 33 34 35 36 37 38 39 40 41 42 43 44
000
FTUS43 KARX 212342
TAFLSE
TAF
KLSE 212342Z 2200/2224 19009KT P6SM VCSH OVC015
     FM220700 21006KT P6SM VCSH OVC010
      TEMPO 2207/2209 4SM -SHRA BR OVC008
     FM220900 25004KT P6SM SCT008 BKN040
     FM221400 31007KT P6SM SCT050 BKN150
     FM221900 31005KT P6SM VCSH BKN060=

USA.gov is the U.S. government's official web portal to all federal, state and local government web resources and services.